Time;durP1;ratioP1;P1;durP2;ratioP2;P2;SDS_P1;SDS_P2;PMS_P1;PMS_P2;Temp;Humidity;BMP_temperature;BMP_pressure;BME280_temperature;BME280_humidity;BME280_pressure;Samples;Min_cycle;Max_cycle;Signal;HPM_P1;HPM_P2
2023/01/11 00:00:11;;;;;;;13.68;12.32;;;8.70;99.90;;;;;;5034053;28;20129;-34
2023/01/11 00:02:37;;;;;;;16.27;13.45;;;8.80;99.90;;;;;;5034473;28;20123;-37
2023/01/11 00:05:03;;;;;;;16.27;13.35;;;8.80;99.90;;;;;;5014909;28;20495;-35
2023/01/11 00:07:29;;;;;;;15.93;13.00;;;8.70;99.90;;;;;;5015738;28;20057;-35
2023/01/11 00:09:55;;;;;;;16.10;14.07;;;8.80;99.90;;;;;;5034065;28;20050;-36
2023/01/11 00:12:20;;;;;;;16.02;13.82;;;8.80;99.90;;;;;;5032233;28;20052;-35
2023/01/11 00:14:46;;;;;;;15.27;13.30;;;8.90;99.90;;;;;;5033399;28;20132;-36
2023/01/11 00:17:12;;;;;;;16.98;12.77;;;8.90;99.90;;;;;;5012753;28;20053;-36
2023/01/11 00:19:38;;;;;;;15.00;12.93;;;8.90;99.90;;;;;;5033810;28;20049;-34
2023/01/11 00:22:03;;;;;;;13.23;11.82;;;8.90;99.90;;;;;;5016352;28;20080;-34
2023/01/11 00:24:29;;;;;;;12.88;11.57;;;9.00;99.90;;;;;;5016051;28;20191;-35
2023/01/11 00:26:55;;;;;;;14.63;12.27;;;9.00;99.90;;;;;;5026282;28;20122;-36
2023/01/11 00:29:21;;;;;;;14.82;11.77;;;9.10;99.90;;;;;;5033654;28;20045;-35
2023/01/11 00:31:46;;;;;;;12.77;11.25;;;9.00;99.90;;;;;;5034177;28;20057;-35
2023/01/11 00:34:12;;;;;;;12.85;11.55;;;9.10;99.90;;;;;;5033818;28;20111;-36
2023/01/11 00:36:38;;;;;;;12.07;10.88;;;9.10;99.90;;;;;;5014704;28;20484;-37
2023/01/11 00:39:04;;;;;;;13.18;10.95;;;9.20;99.90;;;;;;5000065;28;20049;-35
2023/01/11 00:49:43;;;;;;;13.10;11.82;;;9.20;99.90;;;;;;5033446;28;20484;-37
2023/01/11 00:52:09;;;;;;;14.82;10.75;;;9.30;99.90;;;;;;5015978;28;20506;-35
2023/01/11 00:54:39;;;;;;;12.23;11.10;;;9.30;99.90;;;;;;5033460;28;20072;-34
2023/01/11 00:57:06;;;;;;;11.98;10.02;;;9.40;99.90;;;;;;5033731;28;20052;-35
2023/01/11 00:59:33;;;;;;;12.93;11.00;;;9.30;99.90;;;;;;5015034;28;20052;-35
2023/01/11 01:01:59;;;;;;;11.18;9.75;;;9.40;99.90;;;;;;5029207;28;20054;-36
2023/01/11 01:04:24;;;;;;;9.70;8.80;;;9.30;99.90;;;;;;5033349;28;20041;-34
2023/01/11 01:06:50;;;;;;;11.55;10.35;;;9.40;99.90;;;;;;5033327;28;20052;-37
2023/01/11 01:09:16;;;;;;;9.40;8.40;;;9.40;99.90;;;;;;5033399;28;20509;-35
2023/01/11 01:11:41;;;;;;;9.35;8.35;;;9.40;99.90;;;;;;5032542;28;20041;-36
2023/01/11 01:14:25;;;;;;;7.78;7.05;;;9.50;99.90;;;;;;5033244;28;20503;-35
2023/01/11 01:16:55;;;;;;;9.07;8.00;;;9.50;99.90;;;;;;5033834;28;20095;-35
2023/01/11 01:19:22;;;;;;;8.98;7.70;;;9.50;99.90;;;;;;4999823;28;20443;-35
2023/01/11 01:21:48;;;;;;;8.13;7.05;;;9.40;99.90;;;;;;5034953;28;20049;-36
2023/01/11 01:24:14;;;;;;;7.43;6.65;;;9.50;99.90;;;;;;5019161;28;20115;-35
2023/01/11 01:26:41;;;;;;;7.47;6.13;;;9.50;99.90;;;;;;5019159;28;20487;-35
2023/01/11 01:29:07;;;;;;;6.93;6.22;;;9.50;99.90;;;;;;5036874;28;20111;-35
2023/01/11 01:31:32;;;;;;;6.32;5.70;;;9.50;99.90;;;;;;5037616;28;20041;-34
2023/01/11 01:33:58;;;;;;;7.85;5.18;;;9.60;99.90;;;;;;5034888;28;20376;-37
2023/01/11 01:36:24;;;;;;;5.90;4.88;;;9.60;99.90;;;;;;5036693;28;20056;-36
2023/01/11 01:38:50;;;;;;;6.30;5.63;;;9.60;99.90;;;;;;5036945;28;20049;-38
2023/01/11 01:41:15;;;;;;;6.25;5.43;;;9.70;99.90;;;;;;5036655;28;20499;-35
2023/01/11 01:43:46;;;;;;;5.75;5.13;;;9.70;99.90;;;;;;5034858;28;20049;-36
2023/01/11 01:46:12;;;;;;;6.05;5.45;;;9.70;99.90;;;;;;5036544;28;20161;-38
2023/01/11 01:48:40;;;;;;;7.78;6.00;;;9.70;99.90;;;;;;5036520;28;20045;-35
2023/01/11 01:51:08;;;;;;;7.97;6.22;;;9.70;99.90;;;;;;5036451;28;20088;-36
2023/01/11 01:53:40;;;;;;;5.50;5.00;;;9.80;99.90;;;;;;5017505;28;20144;-35
2023/01/11 01:56:12;;;;;;;6.03;4.90;;;9.80;99.90;;;;;;5018997;28;20389;-35
2023/01/11 01:58:44;;;;;;;5.43;4.85;;;9.80;99.90;;;;;;5019300;28;20053;-34
2023/01/11 02:03:57;;;;;;;6.20;4.57;;;9.80;99.90;;;;;;5034699;28;20042;-34
2023/01/11 02:06:24;;;;;;;7.85;5.03;;;9.90;99.90;;;;;;5018579;28;20497;-38
2023/01/11 02:08:57;;;;;;;5.40;4.60;;;9.90;99.90;;;;;;5036646;28;20099;-36
2023/01/11 02:11:30;;;;;;;5.35;4.72;;;9.90;99.90;;;;;;5036654;28;20041;-36
2023/01/11 02:14:05;;;;;;;;;;;9.90;99.90;;;;;;5036774;28;20049;-34
2023/01/11 02:16:32;;;;;;;6.80;4.47;;;10.00;99.90;;;;;;5017429;28;19921;-35
2023/01/11 02:18:59;;;;;;;4.25;3.85;;;10.00;99.90;;;;;;5035594;28;20407;-35
2023/01/11 02:21:36;;;;;;;4.65;3.35;;;10.00;99.90;;;;;;5035890;28;20044;-34
2023/01/11 02:24:21;;;;;;;6.00;4.22;;;10.00;99.90;;;;;;5018886;28;20495;-35
2023/01/11 02:27:26;;;;;;;4.72;4.22;;;10.00;99.90;;;;;;5034300;28;20046;-35
2023/01/11 02:30:25;;;;;;;5.03;4.43;;;10.10;99.90;;;;;;5019141;28;20049;-35
2023/01/11 02:33:19;;;;;;;4.05;3.65;;;10.00;99.90;;;;;;5035190;28;20053;-35
2023/01/11 02:36:09;;;;;;;3.80;3.50;;;10.00;99.90;;;;;;5033610;28;20183;-34
2023/01/11 02:38:46;;;;;;;4.55;3.70;;;10.10;99.90;;;;;;5017949;28;20045;-34
2023/01/11 02:45:00;;;;;;;6.65;4.07;;;10.10;99.90;;;;;;5017854;28;20057;-36
2023/01/11 02:47:25;;;;;;;5.55;4.78;;;10.10;99.90;;;;;;5034870;28;20053;-34
2023/01/11 02:50:06;;;;;;;7.35;4.57;;;10.20;99.90;;;;;;5018777;28;20387;-34
2023/01/11 02:52:50;;;;;;;5.05;4.55;;;10.10;99.90;;;;;;5035376;28;20045;-34
2023/01/11 02:55:23;;;;;;;6.97;4.80;;;10.10;99.90;;;;;;5035535;28;20565;-35
2023/01/11 02:57:51;;;;;;;5.67;5.00;;;10.10;99.90;;;;;;5016217;28;20116;-34
2023/01/11 03:00:19;;;;;;;5.65;5.05;;;10.10;99.90;;;;;;5017354;28;20703;-35
2023/01/11 03:02:44;;;;;;;6.88;5.40;;;10.20;99.90;;;;;;5035080;28;20053;-36
2023/01/11 03:05:12;;;;;;;5.75;5.00;;;10.20;99.90;;;;;;5035886;28;20049;-35
2023/01/11 03:07:44;;;;;;;8.05;5.57;;;10.30;99.90;;;;;;5034307;28;20052;-36
2023/01/11 03:10:28;;;;;;;4.85;4.28;;;10.20;99.90;;;;;;5017263;28;20099;-34
2023/01/11 03:12:59;;;;;;;;;;;10.40;99.90;;;;;;5035410;28;20124;-35
2023/01/11 03:15:47;;;;;;;4.35;3.88;;;10.30;99.90;;;;;;5016898;28;19920;-35
2023/01/11 03:18:45;;;;;;;4.93;2.88;;;10.30;99.90;;;;;;5032053;28;20068;-35
2023/01/11 03:21:25;;;;;;;6.85;3.38;;;10.50;99.90;;;;;;5017906;28;20045;-34
2023/01/11 03:24:02;;;;;;;5.97;3.17;;;10.50;99.90;;;;;;5035412;28;20045;-35
2023/01/11 03:27:21;;;;;;;7.95;3.47;;;10.50;99.90;;;;;;5017300;28;20053;-34
2023/01/11 03:30:10;;;;;;;7.35;3.58;;;10.50;99.90;;;;;;5001904;28;20407;-35
2023/01/11 03:33:12;;;;;;;7.85;5.05;;;10.50;99.90;;;;;;5034158;28;20092;-34
2023/01/11 03:35:45;;;;;;;10.63;4.57;;;10.50;99.90;;;;;;4986925;28;20105;-34
2023/01/11 03:38:23;;;;;;;8.93;4.97;;;10.50;99.90;;;;;;5014977;28;20404;-34
2023/01/11 03:40:55;;;;;;;17.38;7.32;;;10.50;99.90;;;;;;5035282;28;20388;-34
2023/01/11 03:43:23;;;;;;;13.23;7.60;;;10.50;99.90;;;;;;5034234;28;20041;-34
2023/01/11 03:46:05;;;;;;;16.20;7.07;;;10.50;99.90;;;;;;5034595;28;20045;-34
2023/01/11 03:49:03;;;;;;;17.58;7.15;;;10.50;99.90;;;;;;5032331;28;20045;-34
2023/01/11 03:51:33;;;;;;;21.35;7.25;;;10.50;99.90;;;;;;5017481;28;20128;-35
2023/01/11 03:54:03;;;;;;;13.98;6.07;;;10.50;99.90;;;;;;5016583;28;20034;-34
2023/01/11 03:56:48;;;;;;;18.17;7.25;;;10.50;99.90;;;;;;5034214;28;20181;-35
2023/01/11 03:59:14;;;;;;;16.88;6.97;;;10.50;99.90;;;;;;5032213;28;20045;-34
2023/01/11 04:01:39;;;;;;;29.30;9.57;;;10.50;99.90;;;;;;5034039;28;20103;-34
2023/01/11 04:04:05;;;;;;;22.75;8.20;;;10.50;99.90;;;;;;5034492;28;20464;-34
2023/01/11 04:06:34;;;;;;;19.48;6.65;;;10.50;99.90;;;;;;5034010;28;20048;-35
2023/01/11 04:09:00;;;;;;;25.83;7.53;;;10.50;99.90;;;;;;5034178;28;20103;-35
2023/01/11 04:11:26;;;;;;;25.70;7.70;;;10.40;99.90;;;;;;5031744;28;20049;-36
2023/01/11 04:13:51;;;;;;;24.20;5.82;;;10.40;99.90;;;;;;5032861;28;20041;-39
2023/01/11 04:16:17;;;;;;;26.92;5.93;;;10.30;99.90;;;;;;5033843;28;20158;-36
2023/01/11 04:18:43;;;;;;;24.23;5.18;;;10.30;99.90;;;;;;5033813;28;20049;-35
2023/01/11 04:21:08;;;;;;;18.48;3.80;;;10.20;99.90;;;;;;5016354;28;20046;-36
2023/01/11 04:23:34;;;;;;;18.45;3.72;;;10.20;99.90;;;;;;5032962;28;20107;-34
2023/01/11 04:26:00;;;;;;;16.42;2.60;;;10.00;99.90;;;;;;5014605;28;20056;-36
2023/01/11 04:28:26;;;;;;;12.98;2.47;;;9.80;99.90;;;;;;5034226;28;20464;-34
2023/01/11 04:30:52;;;;;;;9.52;2.20;;;9.70;99.90;;;;;;5033716;28;20052;-34
2023/01/11 04:33:18;;;;;;;17.17;2.78;;;9.50;99.90;;;;;;5015656;28;20053;-34
2023/01/11 04:35:44;;;;;;;19.63;2.53;;;9.40;99.90;;;;;;5012712;28;20500;-34
2023/01/11 04:38:10;;;;;;;14.90;2.38;;;9.30;99.90;;;;;;5013871;28;20064;-34
2023/01/11 04:40:36;;;;;;;12.73;2.30;;;9.30;99.90;;;;;;5013870;28;20083;-34
2023/01/11 04:43:02;;;;;;;15.57;2.08;;;9.30;99.90;;;;;;5012508;28;20049;-34
2023/01/11 04:45:29;;;;;;;13.02;1.67;;;9.30;99.90;;;;;;5026659;28;20399;-34
2023/01/11 04:47:56;;;;;;;16.23;2.75;;;9.30;99.90;;;;;;5032784;28;20049;-34
2023/01/11 04:50:23;;;;;;;16.25;2.90;;;9.40;99.90;;;;;;5033500;28;20041;-34
2023/01/11 04:52:49;;;;;;;20.02;4.28;;;9.30;99.90;;;;;;5033490;28;20064;-34
2023/01/11 04:55:14;;;;;;;19.73;3.55;;;9.30;99.90;;;;;;5032471;28;20041;-35
2023/01/11 04:57:42;;;;;;;17.55;3.20;;;9.40;99.90;;;;;;5037084;28;20052;-35
2023/01/11 05:00:09;;;;;;;19.55;3.28;;;9.40;99.90;;;;;;5037754;28;20057;-34
2023/01/11 05:02:36;;;;;;;32.00;3.85;;;9.40;99.90;;;;;;5036406;28;20128;-32
2023/01/11 05:05:02;;;;;;;22.70;3.00;;;9.50;99.90;;;;;;5035651;28;20125;-32
2023/01/11 05:07:28;;;;;;;21.02;4.28;;;9.60;99.90;;;;;;5037626;28;20124;-33
2023/01/11 05:09:54;;;;;;;22.42;4.07;;;9.60;99.90;;;;;;5038093;28;20120;-34
2023/01/11 05:12:20;;;;;;;17.63;3.47;;;9.60;99.90;;;;;;5037836;28;20475;-33
2023/01/11 05:14:46;;;;;;;24.85;3.03;;;9.70;99.90;;;;;;5034997;28;20112;-33
2023/01/11 05:17:13;;;;;;;25.05;3.55;;;9.70;99.90;;;;;;5036826;28;20051;-32
2023/01/11 05:19:40;;;;;;;18.52;3.15;;;9.70;99.90;;;;;;5019708;28;20222;-33
2023/01/11 05:22:05;;;;;;;20.00;2.67;;;9.60;99.90;;;;;;5036122;28;20133;-33
2023/01/11 05:24:34;;;;;;;21.85;3.20;;;9.60;99.90;;;;;;5035472;28;20121;-33
2023/01/11 05:26:59;;;;;;;18.33;4.28;;;9.60;99.90;;;;;;5036272;28;20092;-34
2023/01/11 05:29:25;;;;;;;27.15;3.72;;;9.60;99.90;;;;;;5036900;28;20085;-33
2023/01/11 05:31:51;;;;;;;20.55;3.20;;;9.50;99.90;;;;;;5036980;28;20041;-34
2023/01/11 05:34:17;;;;;;;22.35;2.88;;;9.50;99.90;;;;;;5036641;28;20061;-34
2023/01/11 05:36:43;;;;;;;24.27;4.07;;;9.60;99.90;;;;;;5034433;28;20065;-34
2023/01/11 05:39:13;;;;;;;35.42;5.13;;;9.60;99.90;;;;;;5018912;28;20057;-34
2023/01/11 05:41:39;;;;;;;21.05;3.80;;;9.50;99.90;;;;;;5036644;28;20053;-34
2023/01/11 05:46:50;;;;;;;36.30;4.47;;;9.50;99.90;;;;;;5016912;28;20415;-34
2023/01/11 05:49:16;;;;;;;38.17;6.90;;;9.50;99.90;;;;;;5035964;28;20050;-34
2023/01/11 05:51:44;;;;;;;33.72;5.18;;;9.50;99.90;;;;;;5036302;28;20052;-34
2023/01/11 05:54:12;;;;;;;35.75;4.60;;;9.50;99.90;;;;;;5036248;28;20045;-34
2023/01/11 05:56:38;;;;;;;19.73;3.55;;;9.40;99.90;;;;;;5017301;28;20126;-34
2023/01/11 05:59:04;;;;;;;32.67;5.32;;;9.30;99.90;;;;;;5019653;28;20139;-34
2023/01/11 06:01:31;;;;;;;27.48;4.63;;;9.30;99.90;;;;;;5036238;28;20046;-34
2023/01/11 06:03:57;;;;;;;32.20;5.78;;;9.20;99.90;;;;;;5019074;28;20393;-35
2023/01/11 06:06:23;;;;;;;28.73;4.25;;;9.20;99.90;;;;;;5034309;28;20041;-35
2023/01/11 06:08:48;;;;;;;32.03;5.45;;;9.10;99.90;;;;;;5034379;28;20045;-34
2023/01/11 06:11:15;;;;;;;23.90;4.50;;;9.10;99.90;;;;;;5036583;28;20088;-34
2023/01/11 06:13:41;;;;;;;32.85;3.80;;;9.00;99.90;;;;;;5018536;28;20476;-33
2023/01/11 06:16:15;;;;;;;25.20;3.28;;;8.90;99.90;;;;;;5035715;28;20507;-35
2023/01/11 06:18:43;;;;;;;32.63;5.20;;;8.90;99.90;;;;;;5034575;28;20045;-34
2023/01/11 06:21:10;;;;;;;33.65;4.05;;;8.90;99.90;;;;;;5035693;28;20488;-36
2023/01/11 06:23:38;;;;;;;28.27;4.15;;;9.00;99.90;;;;;;5035770;28;20041;-34
2023/01/11 06:26:07;;;;;;;26.42;5.00;;;9.00;99.90;;;;;;5018044;28;20099;-34
2023/01/11 06:28:34;;;;;;;30.30;4.28;;;8.90;99.90;;;;;;5032131;28;20073;-34
2023/01/11 06:31:00;;;;;;;29.58;4.15;;;9.00;99.90;;;;;;5017607;28;20089;-34
2023/01/11 06:33:27;;;;;;;29.85;4.38;;;9.10;99.90;;;;;;5035629;28;20128;-36
2023/01/11 06:35:54;;;;;;;29.10;4.70;;;9.10;99.90;;;;;;5035996;28;20053;-34
2023/01/11 06:38:21;;;;;;;35.38;4.55;;;9.10;99.90;;;;;;5033895;28;20054;-35
2023/01/11 06:40:55;;;;;;;27.77;4.63;;;9.10;99.90;;;;;;5018144;28;20049;-34
2023/01/11 06:43:23;;;;;;;26.33;5.68;;;9.20;99.90;;;;;;5018591;28;20046;-34
2023/01/11 06:45:49;;;;;;;33.30;4.80;;;9.20;99.90;;;;;;5017818;28;20100;-34
2023/01/11 06:48:16;;;;;;;29.92;5.07;;;9.10;99.90;;;;;;5034477;28;20084;-35
2023/01/11 06:50:43;;;;;;;28.35;4.20;;;9.10;99.90;;;;;;4997255;28;20052;-34
2023/01/11 06:53:08;;;;;;;28.92;3.67;;;9.10;99.90;;;;;;5035352;28;20056;-34
2023/01/11 06:55:34;;;;;;;26.00;4.18;;;9.00;99.90;;;;;;5035316;28;20049;-33
2023/01/11 06:58:00;;;;;;;30.38;4.50;;;9.10;99.90;;;;;;5035508;28;20100;-34
2023/01/11 07:00:25;;;;;;;16.95;3.50;;;9.10;99.90;;;;;;5032914;28;20117;-34
2023/01/11 07:02:51;;;;;;;20.08;3.33;;;9.10;99.90;;;;;;5035074;28;20046;-34
2023/01/11 07:05:17;;;;;;;19.40;3.47;;;9.10;99.90;;;;;;5035418;28;20124;-34
2023/01/11 07:07:43;;;;;;;15.18;2.83;;;9.10;99.90;;;;;;5017993;28;20557;-33
2023/01/11 07:10:11;;;;;;;14.50;2.38;;;9.10;99.90;;;;;;5001522;28;20049;-33
2023/01/11 07:12:37;;;;;;;15.88;2.30;;;9.00;99.90;;;;;;5016243;28;20049;-33
2023/01/11 07:15:05;;;;;;;21.90;3.08;;;8.90;99.90;;;;;;5034908;28;20487;-34
2023/01/11 07:17:31;;;;;;;17.08;3.38;;;9.00;99.90;;;;;;5034494;28;20052;-33
2023/01/11 07:19:57;;;;;;;13.50;2.58;;;9.00;99.90;;;;;;5034140;28;20136;-33
2023/01/11 07:22:23;;;;;;;12.10;2.67;;;8.90;99.90;;;;;;5014492;28;20045;-33
2023/01/11 07:24:49;;;;;;;16.38;2.38;;;8.90;99.90;;;;;;5034663;28;20171;-34
2023/01/11 07:27:15;;;;;;;10.07;2.13;;;8.90;99.90;;;;;;5034711;28;20484;-34
2023/01/11 07:29:41;;;;;;;12.05;1.67;;;8.80;99.90;;;;;;5034634;28;20045;-34
2023/01/11 07:32:07;;;;;;;12.23;2.15;;;8.70;99.90;;;;;;5031458;28;20049;-35
2023/01/11 07:34:33;;;;;;;13.88;1.75;;;8.50;99.90;;;;;;5033372;28;20408;-34
2023/01/11 07:36:59;;;;;;;12.38;1.90;;;8.40;99.90;;;;;;5014445;28;20139;-33
2023/01/11 07:39:30;;;;;;;16.98;2.47;;;8.30;99.90;;;;;;5132416;27;1446261;-35
2023/01/11 07:44:40;;;;;;;19.00;3.30;;;8.20;99.90;;;;;;5170582;27;20050;-33
2023/01/11 07:47:06;;;;;;;20.50;2.60;;;8.30;99.90;;;;;;5172531;27;20484;-33
2023/01/11 07:49:32;;;;;;;21.67;2.58;;;8.40;99.90;;;;;;5173454;27;20042;-34
2023/01/11 07:51:57;;;;;;;19.63;2.42;;;8.60;99.90;;;;;;5173388;27;20046;-33
2023/01/11 07:54:26;;;;;;;25.42;3.30;;;8.60;99.90;;;;;;5173360;27;20050;-33
2023/01/11 07:56:52;;;;;;;21.83;2.80;;;8.70;99.90;;;;;;5171717;27;20205;-33
2023/01/11 07:59:17;;;;;;;15.10;2.28;;;8.80;99.90;;;;;;5169646;27;20030;-33
2023/01/11 08:01:43;;;;;;;18.77;3.47;;;8.90;99.90;;;;;;5173078;27;20046;-34
2023/01/11 08:04:11;;;;;;;21.13;3.28;;;8.90;99.90;;;;;;5173162;27;20499;-34
2023/01/11 08:06:38;;;;;;;16.10;2.97;;;8.90;99.90;;;;;;5173119;27;20121;-34
2023/01/11 08:09:04;;;;;;;18.70;2.70;;;8.90;99.90;;;;;;5173044;27;20039;-33
2023/01/11 08:16:58;;;;;;;16.90;3.30;;;8.80;99.90;;;;;;5173305;27;20157;-33
2023/01/11 08:19:24;;;;;;;11.98;2.78;;;8.80;99.90;;;;;;5173365;27;20539;-33
2023/01/11 08:21:50;;;;;;;17.70;2.80;;;8.90;99.90;;;;;;5154270;27;20050;-34
2023/01/11 08:24:15;;;;;;;13.65;2.80;;;8.90;99.90;;;;;;5151000;27;20043;-33
2023/01/11 08:26:41;;;;;;;19.50;2.90;;;8.90;99.90;;;;;;5151909;27;20039;-34
2023/01/11 08:29:07;;;;;;;13.18;2.05;;;8.90;99.90;;;;;;5151886;27;20035;-34
2023/01/11 08:31:33;;;;;;;17.95;2.85;;;8.90;99.90;;;;;;5151805;27;20046;-34
2023/01/11 08:33:58;;;;;;;14.75;3.70;;;8.80;99.90;;;;;;5151712;27;20042;-34
2023/01/11 08:36:26;;;;;;;18.60;2.58;;;8.80;99.90;;;;;;5151707;27;20484;-34
2023/01/11 08:38:58;;;;;;;19.10;2.10;;;8.70;99.90;;;;;;5133458;27;20094;-33
2023/01/11 08:41:24;;;;;;;14.73;2.72;;;8.80;99.90;;;;;;5100324;27;20055;-34
2023/01/11 08:43:50;;;;;;;19.73;3.35;;;8.70;83.00;;;;;;5133734;27;20115;-34
2023/01/11 08:46:16;;;;;;;16.92;3.50;;;8.70;99.90;;;;;;5133075;27;20480;-34
2023/01/11 08:48:43;;;;;;;16.92;2.92;;;8.80;1.00;;;;;;5150709;27;20039;-33
2023/01/11 08:51:09;;;;;;;15.10;3.70;;;8.70;1.00;;;;;;5137203;27;20043;-34
2023/01/11 08:53:35;;;;;;;13.82;3.20;;;8.70;1.00;;;;;;5119718;27;20051;-35
2023/01/11 08:56:01;;;;;;;20.88;2.50;;;8.60;1.00;;;;;;5138078;27;20100;-34
2023/01/11 08:58:27;;;;;;;17.45;2.13;;;8.60;42.30;;;;;;5137962;27;20047;-34
2023/01/11 09:00:55;;;;;;;15.82;2.90;;;8.60;49.70;;;;;;5137973;27;20051;-35
2023/01/11 09:03:21;;;;;;;15.70;2.10;;;8.60;66.20;;;;;;5137376;27;20480;-34
2023/01/11 09:05:47;;;;;;;12.85;1.95;;;8.60;46.80;;;;;;5119237;27;20050;-34
2023/01/11 09:08:12;;;;;;;14.43;2.10;;;8.50;90.90;;;;;;5138414;27;20383;-34
2023/01/11 09:10:38;;;;;;;25.30;4.03;;;8.30;99.90;;;;;;5137257;27;20047;-34
2023/01/11 09:13:04;;;;;;;14.15;2.33;;;8.20;90.20;;;;;;5129614;27;20035;-34
2023/01/11 09:15:29;;;;;;;16.75;1.90;;;8.10;99.90;;;;;;5117141;28;20040;-33
2023/01/11 09:17:55;;;;;;;18.15;2.90;;;8.00;99.90;;;;;;5098241;28;20040;-33
2023/01/11 09:20:21;;;;;;;22.40;2.85;;;8.00;99.90;;;;;;5116810;28;20146;-34
2023/01/11 09:22:51;;;;;;;13.25;2.42;;;8.00;99.90;;;;;;5099350;28;20047;-34
2023/01/11 09:25:18;;;;;;;16.88;1.98;;;7.90;99.90;;;;;;5116293;28;20126;-33
2023/01/11 09:27:44;;;;;;;16.02;2.60;;;7.90;15.40;;;;;;5116380;28;20048;-34
2023/01/11 09:30:12;;;;;;;13.57;1.92;;;7.90;6.10;;;;;;5116314;28;20049;-34
2023/01/11 09:32:38;;;;;;;18.85;2.92;;;8.00;81.00;;;;;;5116270;28;20374;-34
2023/01/11 09:35:05;;;;;;;12.25;2.33;;;8.10;90.60;;;;;;5116179;28;20134;-34
2023/01/11 09:37:30;;;;;;;11.23;1.90;;;8.20;85.30;;;;;;5098102;28;20057;-33
2023/01/11 09:40:00;;;;;;;17.63;2.67;;;8.20;91.10;;;;;;5098530;28;20052;-34
2023/01/11 09:42:35;;;;;;;12.05;1.98;;;8.30;1.00;;;;;;5098372;28;20054;-35
2023/01/11 09:45:13;;;;;;;10.30;2.15;;;8.40;1.00;;;;;;5116131;28;20051;-34
2023/01/11 09:48:11;;;;;;;15.68;2.28;;;8.40;1.00;;;;;;5116254;28;20071;-35
2023/01/11 09:50:43;;;;;;;12.00;2.10;;;8.50;47.00;;;;;;5098038;28;20393;-34
2023/01/11 09:53:33;;;;;;;16.42;2.83;;;8.50;99.90;;;;;;5098193;28;20052;-35
2023/01/11 09:56:02;;;;;;;13.38;2.10;;;8.50;1.00;;;;;;5116701;28;20047;-35
2023/01/11 09:58:55;;;;;;;15.13;2.53;;;8.50;45.00;;;;;;5097490;28;20043;-34
2023/01/11 10:01:48;;;;;;;12.68;1.60;;;8.60;1.00;;;;;;5114759;28;20039;-35
2023/01/11 10:04:31;;;;;;;14.15;2.65;;;8.60;67.60;;;;;;5116276;28;20051;-34
2023/01/11 10:07:09;;;;;;;18.00;2.55;;;8.70;99.90;;;;;;5115630;28;20056;-34
2023/01/11 10:09:59;;;;;;;15.02;2.15;;;8.70;1.00;;;;;;5080991;28;20393;-36
2023/01/11 10:12:30;;;;;;;14.95;1.80;;;8.80;1.00;;;;;;5116055;28;20046;-35
2023/01/11 10:15:03;;;;;;;9.35;2.08;;;8.80;1.00;;;;;;5115491;28;20059;-35
2023/01/11 10:17:54;;;;;;;14.18;1.67;;;8.80;1.00;;;;;;5115734;28;20048;-34
2023/01/11 10:20:26;;;;;;;10.65;1.50;;;8.90;99.90;;;;;;5097461;28;20134;-35
2023/01/11 10:23:08;;;;;;;12.25;1.75;;;8.90;1.00;;;;;;5097379;28;20477;-34
2023/01/11 10:25:45;;;;;;;13.93;1.90;;;9.00;1.00;;;;;;5097651;28;20093;-38
2023/01/11 10:28:23;;;;;;;11.68;2.17;;;8.90;1.00;;;;;;5115173;28;20036;-35
2023/01/11 10:34:00;;;;;;;15.27;2.70;;;9.00;99.90;;;;;;5115966;28;20096;-35
2023/01/11 10:40:05;;;;;;;14.40;2.55;;;9.10;99.90;;;;;;5075963;28;20052;-34
2023/01/11 10:42:39;;;;;;;13.38;3.45;;;9.10;99.90;;;;;;5114947;28;20093;-34
2023/01/11 10:45:14;;;;;;;7.80;1.58;;;9.20;99.90;;;;;;5115431;28;20040;-37
2023/01/11 10:48:04;;;;;;;15.50;2.20;;;9.20;99.90;;;;;;5114930;28;20044;-36
2023/01/11 10:50:38;;;;;;;13.73;1.92;;;9.20;99.90;;;;;;5114891;28;20056;-34
2023/01/11 10:53:42;;;;;;;15.98;2.60;;;9.20;1.00;;;;;;5097137;28;20469;-36
2023/01/11 10:56:10;;;;;;;15.60;2.80;;;9.20;99.90;;;;;;5114412;28;20493;-38
2023/01/11 10:58:39;;;;;;;15.68;2.63;;;9.20;99.90;;;;;;5114838;28;20090;-36
2023/01/11 11:01:19;;;;;;;12.25;2.40;;;9.20;99.90;;;;;;5114561;28;20051;-38
2023/01/11 11:04:08;;;;;;;15.15;2.83;;;9.20;99.90;;;;;;5114634;28;20047;-38
2023/01/11 11:06:57;;;;;;;17.70;2.72;;;9.20;99.90;;;;;;5088410;28;20059;-36
2023/01/11 11:09:32;;;;;;;17.10;3.72;;;9.30;99.90;;;;;;5114790;28;20043;-35
2023/01/11 11:12:06;;;;;;;12.13;2.53;;;9.30;99.90;;;;;;5114181;28;20047;-34
2023/01/11 11:14:50;;;;;;;20.58;4.03;;;9.30;99.90;;;;;;5096467;28;20401;-34
2023/01/11 11:17:19;;;;;;;;;;;9.30;1.00;;;;;;5097610;28;20484;-34
2023/01/11 11:19:44;;;;;;;15.75;2.65;;;9.30;1.00;;;;;;5114292;28;20022;-35
2023/01/11 11:22:11;;;;;;;15.00;2.15;;;9.30;1.00;;;;;;5114798;28;20180;-34
2023/01/11 11:24:47;;;;;;;18.67;3.75;;;9.30;1.00;;;;;;5096270;28;20052;-34
2023/01/11 11:28:00;;;;;;;24.67;4.10;;;9.40;1.00;;;;;;5114166;28;20043;-35
2023/01/11 11:30:38;;;;;;;21.88;3.90;;;9.30;97.20;;;;;;5035116;28;20064;-34
2023/01/11 11:33:18;;;;;;;25.27;4.43;;;9.30;78.60;;;;;;5051249;28;20123;-35
2023/01/11 11:35:53;;;;;;;18.35;3.33;;;9.40;1.00;;;;;;5092810;28;20060;-39
2023/01/11 11:38:25;;;;;;;21.20;3.47;;;9.40;1.00;;;;;;5113680;28;20095;-36
2023/01/11 11:41:10;;;;;;;21.90;3.17;;;9.40;99.90;;;;;;5114145;28;20131;-35
2023/01/11 11:43:38;;;;;;;17.92;2.67;;;9.40;1.00;;;;;;5114095;28;20040;-36
2023/01/11 11:46:24;;;;;;;15.93;2.85;;;9.50;99.90;;;;;;5113967;28;20055;-36
2023/01/11 11:49:11;;;;;;;18.17;2.85;;;9.60;99.90;;;;;;5096390;28;20096;-35
2023/01/11 11:51:38;;;;;;;14.27;3.30;;;9.60;99.90;;;;;;5114502;28;20044;-38
2023/01/11 11:54:03;;;;;;;22.30;3.58;;;9.60;1.00;;;;;;5113890;28;20086;-37
2023/01/11 11:56:34;;;;;;;17.92;3.13;;;9.60;99.90;;;;;;5095988;28;20083;-37
2023/01/11 11:59:08;;;;;;;20.55;4.30;;;9.60;99.90;;;;;;5113572;28;20545;-34
2023/01/11 12:01:39;;;;;;;18.90;3.30;;;9.60;1.00;;;;;;5113935;28;20059;-35
2023/01/11 12:04:20;;;;;;;21.33;4.30;;;9.50;99.90;;;;;;5113782;28;20489;-34
2023/01/11 12:07:10;;;;;;;19.02;2.78;;;9.60;54.00;;;;;;5095616;28;20377;-35
2023/01/11 12:09:38;;;;;;;20.17;3.38;;;9.50;99.90;;;;;;5095025;28;20043;-35
2023/01/11 12:12:05;;;;;;;21.55;3.60;;;9.50;99.90;;;;;;5113750;28;20085;-34
2023/01/11 12:14:34;;;;;;;17.60;2.72;;;9.50;24.80;;;;;;5114587;28;20090;-37
2023/01/11 12:17:19;;;;;;;16.00;2.80;;;9.60;99.90;;;;;;5113766;28;20048;-39
2023/01/11 12:19:46;;;;;;;15.88;3.28;;;9.60;99.90;;;;;;5113766;28;20053;-37
2023/01/11 12:22:23;;;;;;;16.65;3.50;;;9.50;1.00;;;;;;5113771;28;20439;-35
2023/01/11 12:25:07;;;;;;;14.48;2.83;;;9.50;99.90;;;;;;5114906;28;20043;-36
2023/01/11 12:27:32;;;;;;;;;;;9.50;99.90;;;;;;5118554;28;20123;-39
2023/01/11 12:30:02;;;;;;;16.15;3.28;;;9.40;1.00;;;;;;5118106;28;19919;-40
2023/01/11 12:32:53;;;;;;;15.75;2.83;;;9.50;1.00;;;;;;5117487;28;20130;-40
2023/01/11 12:35:21;;;;;;;27.48;4.28;;;9.50;99.90;;;;;;5117395;28;20050;-41
2023/01/11 12:38:05;;;;;;;24.35;3.60;;;9.50;99.90;;;;;;5117853;28;20059;-40
2023/01/11 12:40:58;;;;;;;20.90;3.67;;;9.50;99.90;;;;;;5117271;28;20047;-41
2023/01/11 12:43:45;;;;;;;20.45;3.05;;;9.30;99.90;;;;;;5092666;28;20065;-40
2023/01/11 12:46:11;;;;;;;21.75;4.20;;;9.40;99.90;;;;;;5117221;28;20490;-41
2023/01/11 12:49:01;;;;;;;21.67;3.88;;;9.50;1.00;;;;;;5099175;28;20051;-40
2023/01/11 12:51:45;;;;;;;15.20;2.72;;;9.50;1.00;;;;;;5117118;28;20048;-40
2023/01/11 12:54:33;;;;;;;24.30;3.97;;;9.60;99.90;;;;;;5099088;28;20211;-40
2023/01/11 12:57:07;;;;;;;22.75;4.00;;;9.60;84.80;;;;;;5099574;28;20048;-40
2023/01/11 12:59:52;;;;;;;21.67;4.60;;;9.60;99.90;;;;;;5116893;28;20051;-40
2023/01/11 13:02:32;;;;;;;21.30;4.63;;;9.70;1.00;;;;;;5099745;28;20085;-40
2023/01/11 13:05:16;;;;;;;21.20;4.30;;;9.70;99.90;;;;;;5117718;28;20055;-41
2023/01/11 13:08:01;;;;;;;22.48;3.92;;;9.70;99.90;;;;;;5116764;28;20048;-40
2023/01/11 13:10:51;;;;;;;17.80;3.75;;;9.70;1.00;;;;;;5117028;28;20047;-40
2023/01/11 13:13:22;;;;;;;30.98;4.63;;;9.70;99.90;;;;;;5116651;28;20054;-38
2023/01/11 13:16:07;;;;;;;25.33;4.75;;;9.70;99.90;;;;;;5117494;28;20144;-39
2023/01/11 13:18:56;;;;;;;22.40;4.00;;;9.80;1.00;;;;;;5117087;28;20123;-39
2023/01/11 13:21:33;;;;;;;22.02;3.50;;;9.70;99.90;;;;;;5098575;28;20164;-39
2023/01/11 13:24:07;;;;;;;25.95;4.25;;;9.60;99.90;;;;;;5117217;28;20048;-39
2023/01/11 13:26:43;;;;;;;24.77;4.28;;;9.40;71.40;;;;;;5098436;28;20048;-39
2023/01/11 13:29:14;;;;;;;29.58;5.15;;;9.40;99.90;;;;;;5082288;28;20504;-39
2023/01/11 13:31:42;;;;;;;20.67;3.55;;;9.30;99.90;;;;;;5115962;28;20512;-38
2023/01/11 13:34:26;;;;;;;27.75;4.93;;;9.30;99.90;;;;;;5115896;28;20126;-39
2023/01/11 13:37:00;;;;;;;28.02;5.28;;;9.30;99.90;;;;;;5116184;28;20119;-39
2023/01/11 13:39:39;;;;;;;28.02;4.57;;;9.40;1.00;;;;;;5098579;28;20063;-36
2023/01/11 13:42:19;;;;;;;24.33;5.32;;;9.50;1.00;;;;;;5116770;28;20055;-38